Puerto de Leitariegos

latitud = 42° 59' 50''N | longitud = 006° 25' 07''W
1530 metros sobre el nivel del mar | datos mensuales

Fecha, hora, temperatura, viento dirección y velocidad, humedad y presión.

  • 25-09-2017 00:00:00 | 10.20°C | Noroeste |5.00 km/h | 93.00% | 852.80 hPa
  • 24-09-2017 23:00:00 | 10.30°C | Sudeste |14.00 km/h | 91.00% | 853.10 hPa
  • 24-09-2017 22:00:00 | 11.90°C | Noroeste |22.00 km/h | 77.00% | 852.90 hPa
  • 24-09-2017 21:00:00 | 0.00°C | 0 |0.00 km/h | 0.00% | 0.00 hPa
  • 24-09-2017 20:00:00 | 16.30°C | Noroeste |14.00 km/h | 47.00% | 851.90 hPa
  • 24-09-2017 19:00:00 | 18.10°C | Sudeste |15.00 km/h | 37.00% | 851.80 hPa
  • 24-09-2017 18:00:00 | 0.00°C | 0 |0.00 km/h | 0.00% | 0.00 hPa
  • 24-09-2017 17:00:00 | 20.20°C | Sudeste |18.00 km/h | 22.00% | 852.50 hPa
  • 24-09-2017 16:00:00 | 18.70°C | Sudeste |24.00 km/h | 21.00% | 852.50 hPa
  • 24-09-2017 15:00:00 | 19.20°C | Sudeste |16.00 km/h | 20.00% | 852.80 hPa
  • 24-09-2017 14:00:00 | 18.20°C | Sudeste |18.00 km/h | 20.00% | 852.70 hPa
  • 24-09-2017 13:00:00 | 17.20°C | Sudeste |16.00 km/h | 19.00% | 852.90 hPa
  • 24-09-2017 12:00:00 | 0.00°C | 0 |0.00 km/h | 0.00% | 0.00 hPa
  • 24-09-2017 11:00:00 | 15.00°C | Este |12.00 km/h | 19.00% | 852.60 hPa
  • 24-09-2017 10:00:00 | 12.00°C | Sur |13.00 km/h | 22.00% | 852.40 hPa
  • 24-09-2017 09:00:00 | 11.60°C | Sur |16.00 km/h | 30.00% | 852.20 hPa
  • 24-09-2017 08:00:00 | 0.00°C | 0 |0.00 km/h | 0.00% | 0.00 hPa
  • 24-09-2017 07:00:00 | 9.70°C | Sudeste |10.00 km/h | 34.00% | 852.10 hPa
  • 24-09-2017 06:00:00 | 9.60°C | Sudeste |14.00 km/h | 48.00% | 852.30 hPa
  • 24-09-2017 05:00:00 | 10.10°C | Sudeste |12.00 km/h | 47.00% | 852.60 hPa
  • 24-09-2017 04:00:00 | 0.00°C | 0 |0.00 km/h | 0.00% | 0.00 hPa
  • 24-09-2017 03:00:00 | 10.60°C | Sudeste |8.00 km/h | 62.00% | 853.00 hPa
  • 24-09-2017 02:00:00 | 0.00°C | 0 |0.00 km/h | 0.00% | 0.00 hPa
  • 24-09-2017 01:00:00 | 10.90°C | Sudoeste |3.00 km/h | 64.00% | 853.30 hPa